Time;durP1;ratioP1;P1;durP2;ratioP2;P2;SDS_P1;SDS_P2;PMS_P1;PMS_P2;Temp;Humidity;BMP_temperature;BMP_pressure;BME280_temperature;BME280_humidity;BME280_pressure;Samples;Min_cycle;Max_cycle;Signal;HPM_P1;HPM_P2
2020/12/12 00:02:14;;;;;;;5.85;3.95;;;4.20;80.60;;;;;;5035118;28;20029;-75
2020/12/12 00:04:40;;;;;;;6.38;4.00;;;4.10;80.70;;;;;;5035114;28;20033;-76
2020/12/12 00:07:05;;;;;;;6.15;4.03;;;4.00;80.70;;;;;;5034929;28;20033;-76
2020/12/12 00:09:31;;;;;;;5.00;3.55;;;4.00;80.90;;;;;;5035214;28;20029;-76
2020/12/12 00:11:56;;;;;;;5.50;4.40;;;4.00;81.10;;;;;;5035064;28;20045;-76
2020/12/12 00:14:22;;;;;;;5.57;4.32;;;4.00;81.00;;;;;;5035023;28;20036;-77
2020/12/12 00:16:51;;;;;;;6.53;4.90;;;3.90;81.00;;;;;;5035065;28;20026;-76
2020/12/12 00:19:17;;;;;;;10.32;5.95;;;3.90;81.00;;;;;;5034938;28;20018;-76
2020/12/12 00:21:42;;;;;;;15.35;7.40;;;3.90;81.10;;;;;;5034843;28;20071;-75
2020/12/12 00:24:08;;;;;;;10.10;5.85;;;3.90;81.20;;;;;;5034609;28;20048;-75
2020/12/12 00:26:33;;;;;;;8.05;4.93;;;3.80;81.40;;;;;;5034550;28;20041;-76
2020/12/12 00:28:59;;;;;;;6.65;4.60;;;3.80;81.60;;;;;;5034695;28;20355;-75
2020/12/12 00:31:24;;;;;;;6.57;4.38;;;3.80;81.70;;;;;;5034487;28;20087;-75
2020/12/12 00:33:50;;;;;;;7.60;4.90;;;3.80;81.90;;;;;;5016879;28;20041;-76
2020/12/12 00:36:16;;;;;;;6.65;4.63;;;3.80;82.10;;;;;;5034601;28;20528;-76
2020/12/12 00:38:42;;;;;;;12.18;7.43;;;3.80;82.20;;;;;;5034532;28;20548;-75
2020/12/12 00:41:08;;;;;;;9.43;6.30;;;3.80;82.30;;;;;;5034506;28;20022;-76
2020/12/12 00:43:34;;;;;;;11.23;6.78;;;3.80;82.30;;;;;;5034377;28;20116;-76
2020/12/12 00:46:01;;;;;;;8.82;6.15;;;3.80;82.40;;;;;;5034278;28;20471;-76
2020/12/12 00:48:27;;;;;;;10.25;5.32;;;3.80;82.50;;;;;;5034291;28;20021;-76
2020/12/12 00:50:52;;;;;;;8.55;6.00;;;3.90;82.70;;;;;;5016572;28;20477;-76
2020/12/12 00:53:18;;;;;;;11.00;7.72;;;3.80;82.50;;;;;;5034200;28;20075;-77
2020/12/12 00:55:43;;;;;;;8.30;4.85;;;3.80;82.60;;;;;;5033997;28;20084;-77
2020/12/12 00:58:09;;;;;;;10.38;6.93;;;3.80;82.70;;;;;;5034041;28;20022;-75
2020/12/12 01:00:35;;;;;;;12.88;8.07;;;3.80;82.80;;;;;;5033046;28;20057;-75
2020/12/12 01:03:02;;;;;;;10.77;7.25;;;3.80;82.90;;;;;;5033987;28;20386;-78
2020/12/12 01:05:28;;;;;;;9.95;6.07;;;3.80;82.90;;;;;;5033996;28;20037;-77
2020/12/12 01:07:54;;;;;;;7.05;5.28;;;3.90;83.00;;;;;;5033729;28;20014;-75
2020/12/12 01:10:20;;;;;;;8.25;5.43;;;3.90;83.10;;;;;;5033882;28;20439;-75
2020/12/12 01:12:46;;;;;;;9.77;6.25;;;3.90;83.10;;;;;;5033673;28;20029;-76
2020/12/12 01:15:12;;;;;;;7.75;5.22;;;3.90;83.30;;;;;;5015822;28;20029;-76
2020/12/12 01:17:38;;;;;;;6.38;4.50;;;3.90;83.30;;;;;;5033545;28;20040;-76
2020/12/12 01:20:04;;;;;;;6.97;5.22;;;3.90;83.40;;;;;;5033554;28;20037;-76
2020/12/12 01:22:30;;;;;;;7.45;4.88;;;3.90;83.30;;;;;;5033303;28;20033;-77
2020/12/12 01:24:55;;;;;;;7.50;5.43;;;3.90;83.30;;;;;;5033468;28;20030;-75
2020/12/12 01:27:21;;;;;;;7.20;5.60;;;3.90;83.20;;;;;;5033335;28;20120;-76
2020/12/12 01:29:47;;;;;;;7.85;5.50;;;4.00;83.10;;;;;;5033779;28;20025;-76
2020/12/12 01:32:14;;;;;;;7.70;5.50;;;4.00;82.80;;;;;;5015679;28;20026;-76
2020/12/12 01:34:40;;;;;;;7.97;5.25;;;3.90;82.90;;;;;;5033607;28;20033;-76
2020/12/12 01:37:05;;;;;;;7.82;5.90;;;3.90;83.00;;;;;;5034127;28;20080;-75
2020/12/12 01:39:31;;;;;;;8.02;5.47;;;3.90;83.00;;;;;;5033798;28;20116;-77
2020/12/12 01:41:56;;;;;;;7.53;5.20;;;3.90;83.10;;;;;;5033444;28;20025;-77
2020/12/12 01:44:22;;;;;;;9.27;5.72;;;4.00;83.20;;;;;;5033220;28;20116;-76
2020/12/12 01:46:48;;;;;;;7.22;5.25;;;4.00;83.00;;;;;;5033497;28;20022;-76
2020/12/12 01:49:14;;;;;;;8.85;5.97;;;4.00;82.90;;;;;;5033490;28;20029;-76
2020/12/12 01:51:42;;;;;;;8.90;5.47;;;4.10;83.10;;;;;;5033260;28;20049;-76
2020/12/12 01:54:08;;;;;;;9.38;6.15;;;4.10;82.90;;;;;;5033165;28;20069;-77
2020/12/12 01:56:34;;;;;;;11.00;6.43;;;4.10;82.90;;;;;;5033263;28;20044;-77
2020/12/12 01:58:59;;;;;;;8.48;5.30;;;4.10;82.90;;;;;;5033177;28;20378;-77
2020/12/12 02:01:28;;;;;;;6.30;4.63;;;4.10;83.00;;;;;;5033364;28;20370;-76
2020/12/12 02:03:55;;;;;;;11.32;6.75;;;4.10;83.10;;;;;;5033037;28;20100;-77
2020/12/12 02:06:21;;;;;;;8.25;5.85;;;4.10;83.00;;;;;;5033185;28;20017;-77
2020/12/12 02:08:51;;;;;;;11.55;6.20;;;4.10;82.90;;;;;;5033048;28;20371;-77
2020/12/12 02:11:17;;;;;;;10.32;6.40;;;4.10;82.90;;;;;;5032715;28;20022;-76
2020/12/12 02:13:46;;;;;;;9.95;6.20;;;4.10;83.00;;;;;;5033064;28;20133;-77
2020/12/12 02:16:13;;;;;;;7.50;5.68;;;4.10;82.90;;;;;;5032910;28;20080;-78
2020/12/12 02:18:39;;;;;;;7.60;5.15;;;4.10;83.00;;;;;;5033052;28;20029;-77
2020/12/12 02:21:06;;;;;;;6.88;5.15;;;4.10;83.00;;;;;;5032996;28;20532;-77
2020/12/12 02:23:31;;;;;;;6.38;4.90;;;4.20;83.80;;;;;;5032811;28;20092;-78
2020/12/12 02:25:57;;;;;;;5.47;4.10;;;4.20;82.80;;;;;;5032912;28;20041;-76
2020/12/12 02:28:25;;;;;;;5.65;4.53;;;4.20;82.70;;;;;;5032660;28;20517;-76
2020/12/12 02:30:50;;;;;;;6.40;4.68;;;4.20;82.50;;;;;;5032999;28;20028;-76
2020/12/12 02:33:17;;;;;;;5.78;4.50;;;4.20;82.60;;;;;;5032763;28;20029;-75
2020/12/12 02:35:42;;;;;;;5.63;4.15;;;4.20;82.40;;;;;;5032786;28;20022;-80
2020/12/12 02:38:08;;;;;;;6.43;4.78;;;4.20;82.50;;;;;;5032782;28;20025;-78
2020/12/12 02:40:34;;;;;;;6.22;4.47;;;4.20;82.60;;;;;;5032848;28;20021;-77
2020/12/12 02:43:01;;;;;;;3.80;3.03;;;4.20;82.60;;;;;;5032825;28;20159;-78
2020/12/12 02:45:26;;;;;;;5.22;3.80;;;4.20;82.60;;;;;;5015028;28;20033;-76
2020/12/12 02:47:52;;;;;;;3.35;2.78;;;4.30;82.30;;;;;;5033025;28;20034;-76
2020/12/12 02:50:26;;;;;;;2.55;2.35;;;4.40;82.00;;;;;;5015146;28;20543;-75
2020/12/12 02:52:52;;;;;;;2.22;1.92;;;4.40;81.80;;;;;;5032592;28;20199;-77
2020/12/12 02:55:18;;;;;;;2.03;1.52;;;4.40;82.70;;;;;;5032902;28;20033;-77
2020/12/12 02:57:44;;;;;;;2.47;2.08;;;4.60;82.00;;;;;;5032842;28;20075;-77
2020/12/12 03:00:12;;;;;;;2.13;1.60;;;4.60;82.30;;;;;;5039402;28;20449;-76
2020/12/12 03:02:37;;;;;;;3.03;2.33;;;4.60;82.50;;;;;;5042081;28;20084;-75
2020/12/12 03:05:05;;;;;;;2.70;2.38;;;4.60;82.60;;;;;;5040458;28;20030;-75
2020/12/12 03:07:32;;;;;;;2.70;2.30;;;4.60;83.50;;;;;;5018967;28;20124;-75
2020/12/12 03:09:58;;;;;;;3.20;2.60;;;4.60;82.80;;;;;;5035913;28;20036;-76
2020/12/12 03:12:23;;;;;;;3.67;2.70;;;4.60;83.20;;;;;;5032533;28;20482;-76
2020/12/12 03:14:50;;;;;;;4.07;3.08;;;4.60;83.40;;;;;;5032451;28;20072;-76
2020/12/12 03:17:16;;;;;;;2.78;2.38;;;4.50;83.60;;;;;;5032411;28;20029;-80
2020/12/12 03:19:41;;;;;;;2.90;2.50;;;4.50;83.40;;;;;;5032992;28;20022;-82
2020/12/12 03:22:07;;;;;;;4.07;3.05;;;4.50;83.60;;;;;;5033012;28;20104;-79
2020/12/12 03:24:33;;;;;;;3.50;2.67;;;4.40;84.00;;;;;;5034980;28;20045;-81
2020/12/12 03:27:00;;;;;;;3.83;2.28;;;4.40;84.50;;;;;;5035994;28;20038;-82
2020/12/12 03:29:25;;;;;;;3.50;2.55;;;4.40;84.40;;;;;;5018471;28;20567;-82
2020/12/12 03:31:51;;;;;;;2.05;1.83;;;4.40;84.20;;;;;;5036302;28;20036;-77
2020/12/12 03:34:17;;;;;;;4.30;1.90;;;4.30;83.90;;;;;;5036425;28;20052;-81
2020/12/12 03:36:42;;;;;;;4.05;1.92;;;4.30;84.00;;;;;;5036213;28;20108;-80
2020/12/12 03:39:08;;;;;;;3.40;1.98;;;4.30;83.80;;;;;;5018253;28;20498;-82
2020/12/12 03:41:33;;;;;;;2.55;2.13;;;4.30;83.60;;;;;;5035942;28;20083;-82
2020/12/12 03:43:59;;;;;;;1.88;1.67;;;4.30;83.80;;;;;;5036129;28;20042;-82
2020/12/12 03:46:25;;;;;;;2.70;1.75;;;4.30;83.70;;;;;;5036111;28;20386;-79
2020/12/12 03:48:50;;;;;;;2.30;1.95;;;4.30;83.60;;;;;;5036089;28;20025;-83
2020/12/12 03:51:16;;;;;;;1.80;1.70;;;4.30;83.50;;;;;;5036000;28;20036;-83
2020/12/12 03:53:42;;;;;;;1.75;1.63;;;4.30;83.80;;;;;;5036420;28;20108;-82
2020/12/12 03:56:07;;;;;;;2.60;1.38;;;4.30;83.80;;;;;;5035901;28;20030;-82
2020/12/12 03:58:33;;;;;;;1.98;1.48;;;4.30;83.40;;;;;;5018256;28;20026;-81
2020/12/12 04:00:58;;;;;;;1.13;0.98;;;4.40;83.50;;;;;;5034945;28;20083;-75
2020/12/12 04:03:24;;;;;;;2.10;1.75;;;4.30;83.00;;;;;;5035112;28;20056;-75
2020/12/12 04:05:50;;;;;;;1.63;1.30;;;4.30;83.40;;;;;;5017408;28;20022;-77
2020/12/12 04:08:15;;;;;;;1.75;1.33;;;4.30;83.60;;;;;;5035065;28;20029;-76
2020/12/12 04:10:41;;;;;;;1.48;1.23;;;4.30;83.40;;;;;;5035257;28;20021;-76
2020/12/12 04:13:07;;;;;;;1.35;1.25;;;4.40;83.40;;;;;;5035013;28;20024;-76
2020/12/12 04:15:33;;;;;;;1.73;1.27;;;4.40;83.80;;;;;;5035112;28;20082;-76
2020/12/12 04:17:59;;;;;;;1.92;1.23;;;4.40;83.40;;;;;;5035066;28;20025;-76
2020/12/12 04:20:24;;;;;;;1.50;1.23;;;4.40;83.20;;;;;;5034872;28;20033;-75
2020/12/12 04:22:50;;;;;;;1.40;1.20;;;4.30;83.80;;;;;;5017188;28;20017;-76
2020/12/12 04:25:16;;;;;;;1.17;1.02;;;4.40;83.40;;;;;;5034622;28;20071;-77
2020/12/12 04:27:42;;;;;;;2.28;1.00;;;4.40;83.50;;;;;;5034591;28;20045;-77
2020/12/12 04:30:08;;;;;;;1.65;1.38;;;4.40;83.60;;;;;;5034816;28;20601;-77
2020/12/12 04:32:34;;;;;;;1.60;1.10;;;4.40;83.80;;;;;;5034921;28;20105;-77
2020/12/12 04:34:59;;;;;;;1.40;1.30;;;4.30;83.80;;;;;;5034527;28;20024;-76
2020/12/12 04:37:25;;;;;;;1.60;1.30;;;4.40;84.30;;;;;;5034541;28;20127;-75
2020/12/12 04:39:50;;;;;;;1.55;1.45;;;4.30;84.30;;;;;;5034507;28;20025;-76
2020/12/12 04:42:17;;;;;;;2.95;1.55;;;4.30;84.70;;;;;;5034585;28;20044;-77
2020/12/12 04:44:43;;;;;;;2.92;1.80;;;4.30;85.00;;;;;;5034377;28;20032;-78
2020/12/12 04:47:11;;;;;;;3.17;2.45;;;4.30;84.90;;;;;;5034584;28;20097;-77
2020/12/12 04:49:37;;;;;;;3.92;2.38;;;4.30;85.70;;;;;;5034619;28;20521;-77
2020/12/12 04:52:04;;;;;;;6.22;3.22;;;4.30;85.00;;;;;;5035490;28;20033;-75
2020/12/12 04:54:33;;;;;;;6.63;3.35;;;4.30;85.00;;;;;;5043197;28;20387;-75
2020/12/12 04:57:02;;;;;;;8.68;3.50;;;4.40;85.00;;;;;;5037298;28;20017;-74
2020/12/12 04:59:30;;;;;;;7.22;3.67;;;4.30;84.90;;;;;;5034230;28;20029;-76
2020/12/12 05:02:00;;;;;;;4.95;3.05;;;4.30;84.90;;;;;;5034119;28;20025;-75
2020/12/12 05:04:27;;;;;;;7.30;4.03;;;4.30;84.90;;;;;;5034160;28;20037;-76
2020/12/12 05:06:52;;;;;;;4.75;2.85;;;4.30;84.70;;;;;;5016491;28;20390;-75
2020/12/12 05:09:19;;;;;;;3.47;2.55;;;4.30;85.00;;;;;;5034231;28;20026;-76
2020/12/12 05:11:46;;;;;;;4.22;2.90;;;4.30;85.00;;;;;;5034139;28;20433;-76
2020/12/12 05:14:14;;;;;;;3.45;2.63;;;4.30;85.00;;;;;;5033872;28;20044;-76
2020/12/12 05:16:40;;;;;;;5.50;3.63;;;4.30;85.10;;;;;;5034168;28;20044;-76
2020/12/12 05:19:06;;;;;;;4.80;3.33;;;4.30;85.20;;;;;;5034067;28;20474;-77
2020/12/12 05:21:32;;;;;;;3.92;2.75;;;4.40;85.00;;;;;;5033921;28;20100;-77
2020/12/12 05:24:01;;;;;;;4.32;2.75;;;4.30;84.70;;;;;;5033812;28;20116;-75
2020/12/12 05:26:29;;;;;;;2.83;2.03;;;4.40;84.60;;;;;;5036840;28;20052;-76
2020/12/12 05:28:58;;;;;;;3.17;2.10;;;4.40;84.40;;;;;;5034797;28;20026;-76
2020/12/12 05:31:24;;;;;;;2.47;1.83;;;4.40;84.00;;;;;;5034288;28;20025;-76
2020/12/12 05:33:49;;;;;;;2.85;1.83;;;4.50;83.60;;;;;;5033950;28;20364;-77
2020/12/12 05:36:15;;;;;;;3.17;1.90;;;4.50;83.30;;;;;;5042635;28;20052;-77
2020/12/12 05:38:40;;;;;;;3.45;1.90;;;4.50;82.90;;;;;;5036606;28;20033;-76
2020/12/12 05:41:07;;;;;;;2.20;1.70;;;4.50;83.00;;;;;;5033658;28;20524;-76
2020/12/12 05:43:36;;;;;;;3.00;2.15;;;4.50;82.60;;;;;;5033373;28;20030;-76
2020/12/12 05:46:02;;;;;;;2.80;1.98;;;4.50;82.60;;;;;;5037148;28;20034;-76
2020/12/12 05:48:28;;;;;;;1.98;1.77;;;4.50;82.70;;;;;;5034340;28;20025;-76
2020/12/12 05:50:55;;;;;;;2.22;1.70;;;4.50;82.70;;;;;;5033288;28;20029;-75
2020/12/12 05:53:20;;;;;;;1.95;1.75;;;4.50;82.80;;;;;;5033368;28;20040;-75
2020/12/12 05:55:46;;;;;;;3.28;1.70;;;4.40;82.90;;;;;;5033140;28;20482;-76
2020/12/12 05:58:14;;;;;;;4.28;2.40;;;4.40;83.00;;;;;;5015506;28;20040;-76
2020/12/12 06:00:41;;;;;;;7.25;4.03;;;4.40;83.00;;;;;;5033139;28;20028;-76
2020/12/12 06:03:21;;;;;;;6.45;3.67;;;4.40;82.60;;;;;;5032918;28;20057;-76
2020/12/12 06:05:48;;;;;;;3.15;2.50;;;4.40;82.70;;;;;;5033065;28;20087;-76
2020/12/12 06:08:31;;;;;;;2.22;1.90;;;4.40;82.70;;;;;;5032900;28;20080;-76
2020/12/12 06:11:03;;;;;;;2.70;2.22;;;4.50;82.60;;;;;;5033086;28;20022;-76
2020/12/12 06:13:34;;;;;;;2.90;1.88;;;4.50;82.70;;;;;;5033009;28;20029;-76
2020/12/12 06:16:03;;;;;;;5.93;3.60;;;4.50;82.80;;;;;;5032944;28;20505;-76
2020/12/12 06:18:38;;;;;;;2.42;1.67;;;4.50;82.90;;;;;;5033026;28;20104;-76
2020/12/12 06:21:07;;;;;;;4.68;1.90;;;4.50;82.60;;;;;;5032969;28;20151;-76
2020/12/12 06:23:37;;;;;;;2.97;2.30;;;4.50;82.60;;;;;;5032856;28;20041;-76
2020/12/12 06:26:03;;;;;;;3.03;2.05;;;4.50;82.60;;;;;;5032735;28;20053;-76
2020/12/12 06:28:31;;;;;;;1.75;1.63;;;4.50;82.70;;;;;;5032695;28;20028;-77
2020/12/12 06:30:57;;;;;;;2.30;2.03;;;4.60;82.70;;;;;;5032805;28;20117;-76
2020/12/12 06:33:22;;;;;;;2.70;1.67;;;4.60;82.50;;;;;;5032613;28;20108;-78
2020/12/12 06:35:48;;;;;;;3.15;2.20;;;4.60;82.40;;;;;;5032320;28;20175;-76
2020/12/12 06:38:25;;;;;;;2.33;1.92;;;4.60;82.30;;;;;;5032576;28;20025;-78
2020/12/12 06:40:54;;;;;;;2.25;1.70;;;4.60;82.20;;;;;;5032811;28;20109;-76
2020/12/12 06:43:26;;;;;;;2.63;1.88;;;4.50;82.20;;;;;;5032532;28;20030;-77
2020/12/12 06:45:52;;;;;;;3.20;2.05;;;4.50;82.40;;;;;;5032626;28;20037;-76
2020/12/12 06:48:26;;;;;;;4.40;2.40;;;4.50;82.50;;;;;;5033057;28;20017;-78
2020/12/12 06:50:53;;;;;;;3.30;2.22;;;4.50;82.60;;;;;;5033240;28;20022;-77
2020/12/12 06:53:21;;;;;;;1.83;1.58;;;4.50;82.70;;;;;;5032796;28;20417;-77
2020/12/12 06:56:05;;;;;;;2.53;1.70;;;4.50;82.60;;;;;;5014872;28;20021;-77
2020/12/12 06:58:31;;;;;;;1.58;1.30;;;4.60;82.40;;;;;;5035078;28;20049;-76
2020/12/12 07:00:56;;;;;;;7.30;4.03;;;4.50;82.20;;;;;;5036175;28;20021;-75
2020/12/12 07:03:22;;;;;;;2.88;2.03;;;4.60;82.10;;;;;;5036336;28;20037;-75
2020/12/12 07:05:48;;;;;;;2.22;1.75;;;4.60;81.80;;;;;;5018427;28;20531;-77
2020/12/12 07:08:14;;;;;;;7.60;4.38;;;4.60;81.80;;;;;;5036198;28;20029;-76
2020/12/12 07:10:41;;;;;;;4.28;3.13;;;4.60;81.90;;;;;;5036143;28;20064;-75
2020/12/12 07:13:08;;;;;;;2.88;2.15;;;4.60;81.80;;;;;;5036253;28;20021;-77
2020/12/12 07:15:36;;;;;;;1.88;1.65;;;4.60;81.80;;;;;;5036113;28;20044;-76
2020/12/12 07:18:05;;;;;;;2.55;1.98;;;4.60;81.70;;;;;;5036089;28;20108;-80
2020/12/12 07:20:40;;;;;;;2.35;1.63;;;4.60;81.60;;;;;;5036077;28;20029;-76
2020/12/12 07:23:07;;;;;;;1.60;1.42;;;4.60;81.70;;;;;;5036232;28;20143;-76
2020/12/12 07:25:34;;;;;;;3.13;1.80;;;4.60;81.50;;;;;;5036050;28;20029;-79
2020/12/12 07:28:05;;;;;;;3.00;2.30;;;4.50;81.60;;;;;;5036189;28;20026;-81
2020/12/12 07:30:31;;;;;;;3.30;2.45;;;4.50;81.60;;;;;;5036106;28;20105;-77
2020/12/12 07:32:56;;;;;;;3.03;2.40;;;4.60;81.60;;;;;;5036509;28;20092;-77
2020/12/12 07:35:22;;;;;;;1.90;1.70;;;4.50;81.50;;;;;;5035974;28;20482;-78
2020/12/12 07:37:48;;;;;;;2.22;1.85;;;4.50;81.70;;;;;;5035918;28;20021;-77
2020/12/12 07:40:14;;;;;;;1.60;1.35;;;4.60;82.20;;;;;;5035455;28;20080;-77
2020/12/12 07:42:41;;;;;;;3.22;2.50;;;4.60;82.30;;;;;;5035458;28;20025;-77
2020/12/12 07:47:37;;;;;;;4.82;3.70;;;4.60;82.60;;;;;;5035816;28;20030;-77
2020/12/12 07:50:05;;;;;;;4.15;3.45;;;4.60;82.70;;;;;;5035733;28;20040;-77
2020/12/12 07:52:31;;;;;;;2.50;2.10;;;4.60;82.70;;;;;;5035510;28;20068;-76
2020/12/12 07:57:23;;;;;;;3.17;2.42;;;4.60;82.50;;;;;;5035533;28;20022;-76
2020/12/12 07:59:48;;;;;;;1.40;1.30;;;4.70;82.50;;;;;;5035736;28;20060;-77
2020/12/12 08:02:14;;;;;;;2.03;1.40;;;4.70;82.60;;;;;;5017704;28;20444;-76
2020/12/12 08:04:40;;;;;;;1.95;1.70;;;4.70;82.40;;;;;;5035561;28;20040;-80
2020/12/12 08:07:10;;;;;;;2.70;2.00;;;4.70;82.50;;;;;;5035512;28;20030;-76
2020/12/12 08:09:36;;;;;;;2.97;2.35;;;4.70;82.70;;;;;;5016808;28;20037;-77
2020/12/12 08:12:03;;;;;;;4.07;2.80;;;4.70;82.50;;;;;;5035202;28;20030;-76
2020/12/12 08:14:31;;;;;;;6.25;4.05;;;4.70;82.70;;;;;;5035308;28;20021;-76
2020/12/12 08:17:00;;;;;;;6.68;3.85;;;4.80;82.80;;;;;;5035554;28;20028;-76
2020/12/12 08:19:28;;;;;;;3.20;2.20;;;4.80;83.00;;;;;;5035121;28;20032;-77
2020/12/12 08:22:13;;;;;;;3.33;2.53;;;4.80;82.90;;;;;;5035158;28;20377;-77
2020/12/12 08:24:39;;;;;;;2.60;1.95;;;4.90;83.10;;;;;;5035197;28;20068;-74
2020/12/12 08:27:15;;;;;;;4.28;3.03;;;4.90;83.00;;;;;;5034608;28;20073;-77
2020/12/12 08:29:50;;;;;;;7.63;2.83;;;4.90;83.00;;;;;;5034701;28;20061;-74
2020/12/12 08:32:37;;;;;;;3.17;2.08;;;5.10;87.20;;;;;;5034582;28;20100;-74
2020/12/12 08:35:22;;;;;;;7.68;2.20;;;5.50;89.10;;;;;;5034792;28;20025;-75
2020/12/12 08:38:01;;;;;;;2.03;1.50;;;6.20;86.90;;;;;;5034340;28;20025;-75
2020/12/12 08:40:53;;;;;;;2.78;2.05;;;6.70;82.40;;;;;;5034439;28;20386;-75
2020/12/12 08:43:19;;;;;;;3.25;1.92;;;7.40;77.70;;;;;;5030048;28;20041;-75
2020/12/12 08:45:56;;;;;;;4.97;2.20;;;7.50;74.00;;;;;;5034282;28;20167;-77
2020/12/12 08:48:32;;;;;;;2.28;1.30;;;7.40;71.80;;;;;;5016440;28;20383;-76
2020/12/12 08:51:00;;;;;;;1.55;1.20;;;7.20;72.10;;;;;;5016964;28;20034;-77
2020/12/12 08:53:33;;;;;;;1.48;1.08;;;6.90;72.70;;;;;;5034157;28;20017;-77
2020/12/12 08:56:10;;;;;;;1.48;1.08;;;6.70;73.60;;;;;;5034227;28;20316;-77
2020/12/12 08:58:43;;;;;;;1.75;1.00;;;6.60;74.90;;;;;;5034043;28;20026;-77
2020/12/12 09:01:09;;;;;;;1.38;0.95;;;6.40;75.50;;;;;;5034169;28;20109;-76
2020/12/12 09:03:35;;;;;;;1.38;1.27;;;6.20;76.10;;;;;;5034237;28;20103;-77
2020/12/12 09:06:06;;;;;;;1.73;1.60;;;6.20;76.60;;;;;;5034197;28;20036;-77
2020/12/12 09:08:32;;;;;;;2.05;1.30;;;6.10;77.10;;;;;;5016528;28;20029;-77
2020/12/12 09:11:13;;;;;;;1.92;1.42;;;6.00;77.50;;;;;;5016365;28;20044;-79
2020/12/12 09:13:39;;;;;;;1.67;1.50;;;6.00;78.00;;;;;;5034419;28;20021;-77
2020/12/12 09:16:08;;;;;;;2.17;1.50;;;5.90;78.10;;;;;;5034809;28;20028;-78
2020/12/12 09:18:44;;;;;;;1.10;0.95;;;5.90;78.50;;;;;;5035272;28;20505;-78
2020/12/12 09:21:11;;;;;;;1.95;1.00;;;5.80;78.80;;;;;;5034548;28;20025;-79
2020/12/12 09:23:37;;;;;;;0.98;0.80;;;5.80;79.10;;;;;;5036327;28;20033;-79
2020/12/12 09:26:04;;;;;;;1.70;1.20;;;5.80;79.50;;;;;;5017909;28;20040;-81
2020/12/12 09:28:30;;;;;;;2.22;1.20;;;5.90;79.40;;;;;;5035340;28;20022;-78
2020/12/12 09:30:55;;;;;;;1.55;1.10;;;5.90;79.50;;;;;;5035761;28;20018;-78
2020/12/12 09:33:21;;;;;;;1.48;0.70;;;5.80;79.70;;;;;;5033946;28;20021;-78
2020/12/12 09:35:46;;;;;;;1.60;1.00;;;5.80;80.20;;;;;;5033959;28;20068;-79
2020/12/12 09:38:12;;;;;;;1.17;0.88;;;5.80;80.40;;;;;;5033867;28;20104;-78
2020/12/12 09:40:37;;;;;;;2.40;1.27;;;5.80;80.10;;;;;;5034002;28;20025;-79
2020/12/12 09:43:03;;;;;;;2.15;1.30;;;5.80;80.10;;;;;;5034431;28;20389;-79
2020/12/12 09:45:29;;;;;;;1.52;0.98;;;5.80;80.30;;;;;;5033827;28;20025;-78
2020/12/12 09:47:54;;;;;;;1.00;0.90;;;5.80;80.40;;;;;;5034278;28;20025;-78
2020/12/12 09:50:20;;;;;;;1.30;1.17;;;5.90;80.50;;;;;;5033681;28;20068;-77
2020/12/12 09:52:45;;;;;;;0.88;0.60;;;5.90;80.80;;;;;;5033799;28;20017;-78
2020/12/12 09:55:11;;;;;;;1.05;0.50;;;6.00;80.50;;;;;;5033353;28;20144;-77
2020/12/12 09:57:39;;;;;;;1.42;1.00;;;6.00;80.40;;;;;;5033700;28;20025;-78
2020/12/12 10:00:04;;;;;;;1.10;0.50;;;6.10;80.40;;;;;;5205240;23;20050;-78
2020/12/12 10:02:30;;;;;;;0.80;0.40;;;6.10;80.10;;;;;;4996926;28;20113;-78
2020/12/12 10:04:55;;;;;;;1.02;0.60;;;6.10;79.90;;;;;;5014640;28;20037;-80
2020/12/12 10:07:21;;;;;;;2.20;1.25;;;6.20;79.70;;;;;;5014255;28;20030;-79
2020/12/12 10:09:47;;;;;;;2.75;1.10;;;6.20;79.70;;;;;;5002090;28;20053;-79
2020/12/12 10:12:12;;;;;;;3.38;1.77;;;6.20;79.70;;;;;;4995347;28;20028;-78
2020/12/12 10:14:38;;;;;;;3.70;1.83;;;6.30;79.80;;;;;;5005292;28;20029;-78
2020/12/12 10:17:03;;;;;;;1.65;1.25;;;6.40;79.80;;;;;;5029718;28;20073;-79
2020/12/12 10:19:29;;;;;;;2.70;1.50;;;6.40;79.70;;;;;;5025509;28;20074;-79
2020/12/12 10:21:54;;;;;;;3.50;1.83;;;6.40;79.70;;;;;;5009100;28;20026;-77
2020/12/12 10:24:20;;;;;;;4.78;2.80;;;6.40;79.50;;;;;;5009222;28;20065;-79
2020/12/12 10:26:46;;;;;;;6.03;2.70;;;6.30;79.40;;;;;;5009619;28;20019;-79
2020/12/12 10:29:11;;;;;;;4.53;2.70;;;6.20;79.50;;;;;;4988851;28;20018;-79
2020/12/12 10:31:37;;;;;;;5.53;3.30;;;6.20;79.50;;;;;;5012564;28;20419;-79
2020/12/12 10:34:02;;;;;;;2.97;1.85;;;6.20;79.70;;;;;;5000562;28;20025;-78
2020/12/12 10:36:28;;;;;;;2.72;1.60;;;6.20;80.00;;;;;;5019188;28;20096;-79
2020/12/12 10:38:53;;;;;;;2.53;1.42;;;6.20;79.90;;;;;;5000305;28;20032;-77
2020/12/12 10:41:19;;;;;;;1.90;1.50;;;6.20;79.80;;;;;;5017550;28;20041;-79
2020/12/12 10:43:45;;;;;;;2.50;1.75;;;6.30;79.90;;;;;;5017592;28;20042;-78
2020/12/12 10:46:10;;;;;;;3.65;2.08;;;6.30;79.80;;;;;;5017097;28;20437;-78
2020/12/12 10:48:36;;;;;;;6.30;3.42;;;6.30;79.70;;;;;;5017310;28;20030;-78
2020/12/12 10:51:02;;;;;;;7.10;3.85;;;6.40;80.50;;;;;;5016806;28;20097;-80
2020/12/12 10:53:27;;;;;;;7.57;4.22;;;6.40;79.70;;;;;;5017014;28;20037;-77
2020/12/12 10:55:53;;;;;;;8.50;3.92;;;6.50;79.80;;;;;;5016700;28;20026;-78
2020/12/12 10:58:19;;;;;;;6.03;3.30;;;6.50;79.70;;;;;;5017739;28;20026;-85
2020/12/12 11:00:47;;;;;;;4.63;2.40;;;6.50;79.80;;;;;;5017612;28;20049;-81
2020/12/12 11:03:12;;;;;;;2.15;1.38;;;6.60;79.70;;;;;;5016982;28;20411;-85
2020/12/12 11:05:38;;;;;;;2.58;1.92;;;6.60;79.00;;;;;;5017705;28;20030;-81
2020/12/12 11:08:04;;;;;;;3.47;1.52;;;6.60;78.60;;;;;;5016589;28;20026;-78
2020/12/12 11:10:30;;;;;;;2.50;1.25;;;6.60;78.60;;;;;;5016873;28;20498;-78
2020/12/12 11:12:55;;;;;;;0.80;0.60;;;6.70;78.60;;;;;;5016624;28;20029;-78
2020/12/12 11:15:21;;;;;;;2.10;1.10;;;6.70;78.20;;;;;;5016672;28;20026;-77
2020/12/12 11:17:47;;;;;;;1.63;0.80;;;6.70;78.10;;;;;;5016471;28;20443;-78
2020/12/12 11:20:14;;;;;;;2.28;0.85;;;6.80;77.70;;;;;;5016257;28;20030;-78
2020/12/12 11:22:40;;;;;;;1.50;1.20;;;6.70;77.60;;;;;;4999459;28;20463;-78
2020/12/12 11:25:06;;;;;;;3.33;1.58;;;6.70;77.80;;;;;;5016382;28;20048;-78
2020/12/12 11:27:33;;;;;;;3.30;1.48;;;6.80;78.00;;;;;;5016677;28;20040;-77
2020/12/12 11:29:59;;;;;;;2.03;1.10;;;6.80;78.20;;;;;;5016408;28;20114;-78
2020/12/12 11:32:24;;;;;;;4.32;1.42;;;6.90;78.20;;;;;;5016547;28;20637;-77
2020/12/12 11:35:00;;;;;;;1.25;1.13;;;7.00;77.90;;;;;;5016296;28;20018;-78
2020/12/12 11:37:50;;;;;;;3.17;1.30;;;7.00;77.80;;;;;;4999020;28;20045;-77
2020/12/12 11:40:22;;;;;;;2.08;1.40;;;7.10;77.30;;;;;;5016236;28;20172;-79
2020/12/12 11:47:42;;;;;;;1.80;1.33;;;7.10;76.50;;;;;;5016716;28;20022;-78
2020/12/12 11:50:08;;;;;;;4.22;3.10;;;7.20;76.60;;;;;;5016306;28;20034;-78
2020/12/12 11:52:37;;;;;;;3.35;1.77;;;7.20;76.40;;;;;;5015790;28;20054;-78
2020/12/12 11:55:04;;;;;;;3.55;1.90;;;7.20;76.20;;;;;;5016222;28;20142;-85
2020/12/12 11:57:31;;;;;;;5.43;2.00;;;7.20;76.10;;;;;;4998843;28;20025;-78
2020/12/12 11:59:59;;;;;;;2.20;1.30;;;7.10;76.50;;;;;;5015764;28;20041;-80
2020/12/12 12:02:25;;;;;;;3.05;1.80;;;7.10;76.70;;;;;;5015613;28;20550;-79
2020/12/12 12:04:52;;;;;;;2.38;1.67;;;7.10;77.00;;;;;;5015384;28;20109;-78
2020/12/12 12:07:17;;;;;;;4.25;1.40;;;7.20;77.10;;;;;;5015437;28;20022;-77
2020/12/12 12:09:46;;;;;;;2.88;1.45;;;7.20;77.00;;;;;;5015519;28;20533;-77
2020/12/12 12:12:11;;;;;;;3.72;1.30;;;7.20;76.60;;;;;;4997428;28;20437;-77
2020/12/12 12:14:37;;;;;;;3.17;0.85;;;7.20;76.40;;;;;;4997491;28;20087;-78
2020/12/12 12:17:02;;;;;;;2.85;1.00;;;7.30;76.30;;;;;;5015265;28;20044;-78
2020/12/12 12:19:28;;;;;;;5.00;1.30;;;7.30;75.80;;;;;;5015280;28;20030;-77
2020/12/12 12:21:54;;;;;;;3.10;1.17;;;7.30;75.30;;;;;;5015035;28;20022;-77
2020/12/12 12:24:20;;;;;;;1.58;1.05;;;7.30;75.30;;;;;;4997517;28;20045;-77
2020/12/12 12:26:48;;;;;;;3.28;1.63;;;7.30;76.10;;;;;;5015392;28;20018;-77
2020/12/12 12:29:15;;;;;;;2.15;1.17;;;7.20;75.20;;;;;;5015084;28;20168;-78
2020/12/12 12:31:41;;;;;;;4.32;1.73;;;7.30;75.60;;;;;;5014827;28;20054;-77
2020/12/12 12:34:07;;;;;;;1.42;0.95;;;7.30;75.30;;;;;;5014709;28;20030;-77
2020/12/12 12:36:34;;;;;;;1.77;1.02;;;7.30;74.80;;;;;;5014420;28;20316;-78
2020/12/12 12:39:01;;;;;;;2.33;1.20;;;7.20;75.20;;;;;;5014635;28;20025;-77
2020/12/12 12:41:28;;;;;;;1.77;1.25;;;7.30;75.50;;;;;;5014970;28;20033;-78
2020/12/12 12:44:00;;;;;;;3.25;1.63;;;7.30;75.10;;;;;;5016155;28;20033;-80
2020/12/12 12:46:27;;;;;;;1.83;0.98;;;7.40;75.20;;;;;;5018328;28;20084;-78
2020/12/12 12:48:52;;;;;;;3.17;1.27;;;7.40;74.70;;;;;;5014463;28;20022;-77
2020/12/12 12:51:18;;;;;;;1.60;0.95;;;7.30;74.40;;;;;;5014446;28;20552;-77
2020/12/12 12:53:43;;;;;;;2.58;1.50;;;7.40;74.40;;;;;;4996953;28;20022;-77
2020/12/12 12:56:10;;;;;;;2.10;1.25;;;7.60;74.30;;;;;;5014362;28;20068;-77
2020/12/12 12:58:36;;;;;;;2.90;1.45;;;7.80;74.10;;;;;;5014431;28;20363;-78
2020/12/12 13:01:02;;;;;;;3.25;1.70;;;8.30;73.70;;;;;;5014357;28;20029;-78
2020/12/12 13:03:27;;;;;;;3.97;2.03;;;8.90;71.60;;;;;;4996221;28;20030;-78
2020/12/12 13:05:53;;;;;;;2.97;1.70;;;9.60;69.40;;;;;;5014419;28;20034;-80
2020/12/12 13:08:18;;;;;;;2.03;1.60;;;9.90;67.10;;;;;;4996786;28;20033;-79